Time;durP1;ratioP1;P1;durP2;ratioP2;P2;SDS_P1;SDS_P2;PMS_P1;PMS_P2;Temp;Humidity;BMP_temperature;BMP_pressure;BME280_temperature;BME280_humidity;BME280_pressure;Samples;Min_cycle;Max_cycle;Signal;HPM_P1;HPM_P2
2022/09/19 00:02:13;;;;;;;1.35;1.08;;;7.50;99.90;;;;;;6254169;22;20019;-86
2022/09/19 00:05:00;;;;;;;3.03;1.00;;;7.40;1.00;;;;;;6254878;22;20113;-84
2022/09/19 00:07:48;;;;;;;1.10;1.00;;;7.40;61.90;;;;;;6275294;22;20362;-86
2022/09/19 00:10:42;;;;;;;3.55;0.90;;;7.30;99.90;;;;;;6276931;22;20028;-84
2022/09/19 00:13:30;;;;;;;1.08;0.85;;;7.30;99.90;;;;;;6276851;22;20038;-83
2022/09/19 00:16:27;;;;;;;0.75;0.73;;;7.30;99.90;;;;;;6255179;22;20050;-84
2022/09/19 00:19:19;;;;;;;1.10;0.60;;;7.20;99.90;;;;;;6255461;22;20051;-84
2022/09/19 00:22:07;;;;;;;1.53;0.90;;;7.20;1.00;;;;;;6277335;22;20027;-84
2022/09/19 00:24:54;;;;;;;0.60;0.60;;;7.20;99.90;;;;;;6255828;22;20026;-84
2022/09/19 00:27:44;;;;;;;0.77;0.70;;;7.20;99.90;;;;;;6275944;22;20023;-84
2022/09/19 00:30:37;;;;;;;0.70;0.70;;;7.20;99.90;;;;;;6276752;22;20462;-84
2022/09/19 00:33:30;;;;;;;0.70;0.70;;;7.20;1.00;;;;;;6256370;22;20042;-85
2022/09/19 00:36:17;;;;;;;0.70;0.70;;;7.20;1.00;;;;;;6276822;22;20330;-85
2022/09/19 00:39:06;;;;;;;1.42;1.05;;;7.20;99.90;;;;;;6278589;22;20021;-84
2022/09/19 00:41:53;;;;;;;0.77;0.77;;;7.20;99.90;;;;;;6256466;22;20030;-84
2022/09/19 00:44:41;;;;;;;0.98;0.90;;;7.10;99.90;;;;;;6277048;22;20019;-84
2022/09/19 00:47:39;;;;;;;0.75;0.75;;;7.00;99.90;;;;;;6255777;22;20028;-84
2022/09/19 00:50:28;;;;;;;0.80;0.80;;;7.00;99.90;;;;;;6277306;22;20042;-84
2022/09/19 00:53:21;;;;;;;0.88;0.88;;;7.00;99.90;;;;;;6257048;22;20028;-84
2022/09/19 00:56:15;;;;;;;0.75;0.75;;;6.90;99.90;;;;;;6278319;22;20033;-83
2022/09/19 00:59:05;;;;;;;0.90;0.90;;;6.80;99.90;;;;;;6278247;22;20024;-82
2022/09/19 01:01:54;;;;;;;0.80;0.80;;;6.80;99.90;;;;;;6277529;22;20043;-83
2022/09/19 01:04:43;;;;;;;1.05;0.95;;;6.70;1.00;;;;;;6280058;22;20024;-83
2022/09/19 01:07:37;;;;;;;1.25;1.00;;;6.60;1.00;;;;;;6279198;22;20359;-83
2022/09/19 01:10:27;;;;;;;0.90;0.90;;;6.60;1.00;;;;;;6278925;22;20028;-83
2022/09/19 01:13:59;;;;;;;1.00;1.00;;;6.50;64.60;;;;;;6279264;22;20027;-83
2022/09/19 01:16:54;;;;;;;0.90;0.90;;;6.40;99.90;;;;;;6279977;22;20330;-83
2022/09/19 01:20:02;;;;;;;1.10;1.10;;;6.40;99.90;;;;;;6278711;22;20095;-83
2022/09/19 01:22:56;;;;;;;1.02;1.02;;;6.30;99.90;;;;;;6279091;22;20024;-84
2022/09/19 01:25:52;;;;;;;1.00;1.00;;;6.20;99.90;;;;;;6277194;22;20031;-83
2022/09/19 01:28:51;;;;;;;2.22;1.20;;;6.00;99.90;;;;;;6278099;22;20137;-83
2022/09/19 01:31:43;;;;;;;2.45;1.17;;;5.80;99.90;;;;;;6279662;22;20039;-84
2022/09/19 01:34:33;;;;;;;1.40;1.30;;;5.70;99.90;;;;;;6277727;22;20035;-83
2022/09/19 01:37:30;;;;;;;1.52;1.42;;;5.60;63.50;;;;;;6279962;22;20430;-83
2022/09/19 01:40:18;;;;;;;1.63;1.50;;;5.50;99.90;;;;;;6277528;22;20024;-84
2022/09/19 01:43:13;;;;;;;2.40;2.20;;;5.50;99.90;;;;;;6278340;22;20024;-84
2022/09/19 01:46:10;;;;;;;2.35;1.85;;;5.60;99.90;;;;;;6279469;22;20023;-84
2022/09/19 01:49:08;;;;;;;2.33;2.13;;;5.80;99.90;;;;;;6278499;22;20023;-84
2022/09/19 01:52:22;;;;;;;2.85;2.60;;;5.90;1.00;;;;;;6277655;22;20058;-84
2022/09/19 01:55:45;;;;;;;6.75;2.90;;;5.90;1.00;;;;;;6259871;22;20034;-83
2022/09/19 01:58:57;;;;;;;5.30;3.33;;;6.00;55.50;;;;;;6278005;22;20106;-84
2022/09/19 02:02:22;;;;;;;3.30;2.97;;;6.00;98.40;;;;;;6256143;22;20024;-84
2022/09/19 02:05:32;;;;;;;3.38;2.70;;;6.00;99.90;;;;;;6245319;22;20054;-84
2022/09/19 02:08:29;;;;;;;3.65;3.33;;;6.00;99.90;;;;;;6256267;22;20028;-85
2022/09/19 02:11:20;;;;;;;3.08;2.88;;;6.00;99.90;;;;;;6277110;22;20031;-84
2022/09/19 02:14:17;;;;;;;7.35;2.92;;;6.00;99.90;;;;;;6277096;22;20027;-84
2022/09/19 02:17:11;;;;;;;4.63;3.08;;;5.90;99.90;;;;;;6279342;22;20035;-84
2022/09/19 02:20:21;;;;;;;;;;;5.90;99.90;;;;;;6278529;22;20315;-84
2022/09/19 02:23:12;;;;;;;4.45;2.90;;;5.90;99.90;;;;;;6281027;22;19915;-84
2022/09/19 02:26:02;;;;;;;4.35;3.33;;;5.80;99.90;;;;;;6258351;22;20024;-85
2022/09/19 02:28:54;;;;;;;3.50;2.95;;;5.70;99.90;;;;;;6257340;22;20397;-84
2022/09/19 02:31:41;;;;;;;3.00;2.70;;;5.70;99.90;;;;;;6281780;22;20058;-82
2022/09/19 02:34:29;;;;;;;7.00;2.67;;;5.70;99.90;;;;;;6279380;22;20030;-86
2022/09/19 02:37:29;;;;;;;4.90;2.67;;;5.80;99.90;;;;;;6280585;22;20027;-82
2022/09/19 02:40:25;;;;;;;3.00;2.70;;;5.80;99.90;;;;;;6281777;22;20036;-85
2022/09/19 02:43:29;;;;;;;4.97;3.08;;;5.80;99.90;;;;;;6257578;22;20379;-82
2022/09/19 02:46:41;;;;;;;4.43;3.20;;;5.80;99.90;;;;;;6254883;22;20023;-83
2022/09/19 02:50:07;;;;;;;7.00;2.85;;;5.80;99.90;;;;;;6278169;22;20441;-84
2022/09/19 02:52:57;;;;;;;3.92;3.00;;;5.80;66.50;;;;;;6228505;23;20028;-84
2022/09/19 02:55:50;;;;;;;4.75;3.05;;;5.80;1.00;;;;;;6226205;23;20028;-84
2022/09/19 02:58:45;;;;;;;4.47;3.25;;;5.80;1.00;;;;;;6226538;23;20020;-85
2022/09/19 03:01:37;;;;;;;7.55;4.50;;;5.70;1.00;;;;;;6226748;23;20020;-86
2022/09/19 03:04:29;;;;;;;6.78;4.05;;;5.70;1.00;;;;;;6225034;23;20031;-84
2022/09/19 03:07:23;;;;;;;;;;;5.70;99.90;;;;;;6249056;23;20024;-85
2022/09/19 03:10:17;;;;;;;5.20;2.92;;;5.70;99.90;;;;;;6246927;23;19916;-84
2022/09/19 03:13:22;;;;;;;3.10;2.88;;;5.70;99.90;;;;;;6247086;23;20031;-85
2022/09/19 03:16:23;;;;;;;7.18;2.97;;;5.70;99.90;;;;;;6227034;23;20024;-84
2022/09/19 03:19:11;;;;;;;6.18;3.30;;;5.60;99.90;;;;;;6247711;23;20024;-85
2022/09/19 03:21:59;;;;;;;3.78;2.63;;;5.70;99.90;;;;;;6246644;23;20024;-83
2022/09/19 03:24:46;;;;;;;8.00;3.13;;;5.60;65.50;;;;;;6245860;23;20024;-84
2022/09/19 03:27:36;;;;;;;9.00;2.92;;;5.60;99.30;;;;;;6226417;23;20090;-85
2022/09/19 03:30:27;;;;;;;6.78;2.70;;;5.60;99.90;;;;;;6247641;23;20051;-84
2022/09/19 03:33:18;;;;;;;10.00;3.58;;;5.60;99.90;;;;;;6226008;23;20028;-85
2022/09/19 03:36:07;;;;;;;12.88;3.15;;;5.60;1.00;;;;;;6227538;23;20023;-86
2022/09/19 03:39:00;;;;;;;6.68;2.83;;;5.60;1.00;;;;;;6247338;23;20031;-86
2022/09/19 03:41:48;;;;;;;7.68;3.47;;;5.60;1.00;;;;;;6225988;23;20035;-85
2022/09/19 03:44:35;;;;;;;7.78;3.40;;;5.50;1.00;;;;;;6226670;23;20047;-86
2022/09/19 03:47:29;;;;;;;4.75;3.10;;;5.50;1.00;;;;;;6227636;23;20035;-84
2022/09/19 03:50:30;;;;;;;6.07;3.22;;;5.50;99.90;;;;;;6223316;23;20024;-84
2022/09/19 03:53:20;;;;;;;7.88;3.22;;;5.50;99.90;;;;;;6248066;23;20028;-85
2022/09/19 03:56:09;;;;;;;9.55;3.30;;;5.60;99.90;;;;;;6246426;23;20028;-85
2022/09/19 03:58:58;;;;;;;4.07;2.60;;;5.60;99.90;;;;;;6245897;23;20046;-85
2022/09/19 04:01:46;;;;;;;10.73;3.42;;;5.60;99.90;;;;;;6249863;22;20024;-85
2022/09/19 04:04:36;;;;;;;4.45;3.90;;;5.60;11.00;;;;;;6268141;22;20051;-86
2022/09/19 04:07:27;;;;;;;16.70;4.18;;;5.60;12.00;;;;;;6248624;22;20400;-85
2022/09/19 04:10:15;;;;;;;10.10;4.05;;;5.70;1.00;;;;;;6246731;23;20442;-84
2022/09/19 04:13:04;;;;;;;10.43;3.40;;;5.70;1.00;;;;;;6247562;23;20031;-86
2022/09/19 04:15:57;;;;;;;6.50;3.53;;;5.70;1.00;;;;;;6247906;22;20697;-86
2022/09/19 04:18:50;;;;;;;10.05;3.30;;;5.80;1.00;;;;;;6247882;22;20035;-84
2022/09/19 04:21:41;;;;;;;7.95;3.47;;;5.80;1.00;;;;;;6246831;23;20020;-84
2022/09/19 04:24:29;;;;;;;6.85;3.58;;;5.80;1.00;;;;;;6247233;23;20024;-83
2022/09/19 04:27:16;;;;;;;10.00;3.20;;;5.70;1.00;;;;;;6248967;22;20024;-85
2022/09/19 04:30:10;;;;;;;13.55;3.47;;;5.70;99.90;;;;;;6245286;23;20044;-86
2022/09/19 04:33:00;;;;;;;8.02;2.95;;;5.70;99.90;;;;;;6244995;23;20106;-85
2022/09/19 04:35:47;;;;;;;9.18;3.03;;;5.80;1.00;;;;;;6248232;22;20027;-85
2022/09/19 04:38:44;;;;;;;11.98;3.20;;;5.80;17.60;;;;;;6247325;23;20039;-83
2022/09/19 04:41:33;;;;;;;11.07;2.78;;;5.90;80.80;;;;;;6244627;23;20407;-83
2022/09/19 04:44:29;;;;;;;12.55;3.20;;;6.00;59.70;;;;;;6246957;23;20023;-82
2022/09/19 04:47:19;;;;;;;14.43;2.90;;;6.10;1.00;;;;;;6266000;22;20024;-83
2022/09/19 04:50:08;;;;;;;11.23;2.60;;;6.10;1.00;;;;;;6246613;23;20062;-84
2022/09/19 04:52:56;;;;;;;11.75;2.92;;;6.10;99.90;;;;;;6228942;22;20111;-82
2022/09/19 04:55:48;;;;;;;7.80;2.53;;;6.20;1.00;;;;;;6245180;23;20036;-84
2022/09/19 04:58:37;;;;;;;7.07;2.40;;;6.20;1.00;;;;;;6225527;23;20035;-84
2022/09/19 05:01:26;;;;;;;16.73;3.15;;;6.30;99.90;;;;;;6246503;23;20400;-82
2022/09/19 05:04:17;;;;;;;12.27;2.53;;;6.30;1.00;;;;;;6244615;23;20024;-81
2022/09/19 05:07:06;;;;;;;8.50;2.30;;;6.30;99.90;;;;;;6225761;23;20024;-82
2022/09/19 05:09:53;;;;;;;11.43;2.58;;;6.30;99.90;;;;;;6245998;23;20023;-82
2022/09/19 05:12:41;;;;;;;8.90;2.63;;;6.30;99.90;;;;;;6224995;23;20095;-83
2022/09/19 05:15:28;;;;;;;6.45;2.20;;;6.30;99.90;;;;;;6246151;23;20082;-82
2022/09/19 05:18:19;;;;;;;9.55;2.88;;;6.30;99.90;;;;;;6247667;23;20403;-83
2022/09/19 05:21:11;;;;;;;9.05;3.20;;;6.30;1.00;;;;;;6244838;23;20095;-83
2022/09/19 05:24:00;;;;;;;;;;;6.30;1.00;;;;;;6248270;23;20123;-84
2022/09/19 05:26:47;;;;;;;8.68;2.42;;;6.40;99.90;;;;;;6245036;23;20305;-83
2022/09/19 05:29:39;;;;;;;12.07;3.45;;;6.30;24.00;;;;;;6224141;23;20115;-83
2022/09/19 05:32:26;;;;;;;12.85;3.65;;;6.40;99.90;;;;;;6246677;23;20337;-84
2022/09/19 05:35:14;;;;;;;16.13;3.33;;;6.40;99.90;;;;;;6247777;23;20024;-84
2022/09/19 05:38:01;;;;;;;14.82;3.30;;;6.40;99.90;;;;;;6226983;23;20434;-85
2022/09/19 05:40:52;;;;;;;10.43;3.10;;;6.50;1.00;;;;;;6223908;23;20063;-84
2022/09/19 05:43:44;;;;;;;10.15;3.17;;;6.50;1.00;;;;;;6223064;23;20052;-86
2022/09/19 05:46:31;;;;;;;10.05;2.28;;;6.60;99.90;;;;;;6247962;23;20024;-83
2022/09/19 05:49:21;;;;;;;12.63;2.78;;;6.60;1.00;;;;;;6226935;23;20122;-85
2022/09/19 05:55:19;;;;;;;15.85;3.92;;;6.80;99.90;;;;;;6261380;22;20027;-88
2022/09/19 05:58:08;;;;;;;10.00;2.53;;;6.80;99.90;;;;;;6277689;22;20035;-85
2022/09/19 06:00:57;;;;;;;10.43;2.47;;;6.90;1.00;;;;;;6255515;22;20439;-87
2022/09/19 06:03:45;;;;;;;19.65;3.35;;;6.90;99.90;;;;;;6258444;22;20023;-86
2022/09/19 06:06:36;;;;;;;13.98;2.97;;;7.00;99.90;;;;;;6275355;22;20034;-86
2022/09/19 06:09:24;;;;;;;11.35;2.58;;;7.00;70.90;;;;;;6278678;22;20451;-87
2022/09/19 06:12:11;;;;;;;9.73;1.98;;;7.10;1.00;;;;;;6251092;22;20035;-85
2022/09/19 06:15:00;;;;;;;8.52;2.33;;;7.20;1.00;;;;;;6276807;22;20051;-87
2022/09/19 06:17:53;;;;;;;17.63;2.80;;;7.30;1.00;;;;;;6256538;22;20047;-89
2022/09/19 06:20:44;;;;;;;6.45;2.47;;;7.40;99.90;;;;;;6257562;22;20042;-90
2022/09/19 06:23:42;;;;;;;12.70;2.58;;;7.50;99.90;;;;;;6259504;22;20028;-87
2022/09/19 06:26:31;;;;;;;7.05;2.40;;;7.60;99.90;;;;;;6259096;22;20106;-84
2022/09/19 06:29:19;;;;;;;21.00;2.45;;;7.70;99.90;;;;;;6280891;22;20024;-84
2022/09/19 06:32:09;;;;;;;15.18;2.72;;;7.80;9.40;;;;;;6264270;22;20028;-86
2022/09/19 06:34:57;;;;;;;14.98;2.90;;;7.80;1.00;;;;;;6262521;22;20027;-87
2022/09/19 06:37:45;;;;;;;8.82;2.10;;;7.80;1.00;;;;;;6259530;22;20023;-87
2022/09/19 06:40:36;;;;;;;11.52;2.25;;;7.90;1.00;;;;;;6255964;22;20031;-87
2022/09/19 06:43:30;;;;;;;11.43;2.38;;;7.90;1.00;;;;;;6258672;22;20020;-86
2022/09/19 06:46:25;;;;;;;12.77;2.35;;;8.00;99.90;;;;;;6292557;22;20028;-86
2022/09/19 06:49:18;;;;;;;16.40;2.80;;;8.00;99.90;;;;;;6272697;22;20035;-88
2022/09/19 06:52:19;;;;;;;8.57;2.40;;;8.00;99.90;;;;;;6253749;23;20020;-87
2022/09/19 06:55:08;;;;;;;11.25;2.70;;;8.10;99.90;;;;;;6243418;22;20028;-85
2022/09/19 06:58:03;;;;;;;11.57;2.40;;;8.20;1.00;;;;;;6270464;22;20012;-84
2022/09/19 07:00:51;;;;;;;12.68;2.25;;;8.40;1.00;;;;;;6249657;22;20017;-84
2022/09/19 07:03:44;;;;;;;7.78;1.80;;;8.50;1.00;;;;;;6247432;23;20024;-85
2022/09/19 07:06:34;;;;;;;7.65;2.13;;;8.60;99.90;;;;;;6240988;23;20431;-85
2022/09/19 07:09:24;;;;;;;17.60;3.15;;;8.70;99.90;;;;;;6243210;23;20043;-85
2022/09/19 07:12:11;;;;;;;7.90;2.20;;;8.70;99.90;;;;;;6240263;23;20272;-86
2022/09/19 07:15:06;;;;;;;10.02;2.30;;;8.80;99.90;;;;;;6245656;23;20034;-86
2022/09/19 07:17:54;;;;;;;13.40;2.72;;;9.00;99.90;;;;;;6254288;23;20055;-86
2022/09/19 07:20:44;;;;;;;17.23;3.13;;;9.20;99.90;;;;;;6231598;23;20020;-87
2022/09/19 07:23:36;;;;;;;15.35;2.05;;;9.30;99.90;;;;;;6235511;23;20032;-88
2022/09/19 07:26:26;;;;;;;16.00;2.08;;;9.50;90.70;;;;;;6231136;23;20079;-88
2022/09/19 07:29:14;;;;;;;10.23;2.03;;;9.90;46.10;;;;;;6226807;23;20024;-89
2022/09/19 07:32:02;;;;;;;10.32;2.22;;;10.10;1.00;;;;;;6247710;23;20038;-88
2022/09/19 07:34:57;;;;;;;9.25;1.65;;;10.10;1.00;;;;;;6247150;23;20455;-87
2022/09/19 07:37:58;;;;;;;14.15;2.03;;;10.10;1.00;;;;;;6225580;23;20039;-87
2022/09/19 07:40:47;;;;;;;9.00;2.33;;;9.90;1.00;;;;;;6246487;23;20695;-89
2022/09/19 07:43:36;;;;;;;14.30;2.40;;;9.80;1.00;;;;;;6229739;23;20034;-90
2022/09/19 07:46:26;;;;;;;13.52;2.15;;;9.80;1.00;;;;;;6240787;23;20079;-90
2022/09/19 07:50:13;;;;;;;13.73;2.97;;;9.90;1.00;;;;;;6250480;23;20051;-91
2022/09/19 07:53:56;;;;;;;10.00;2.10;;;10.00;1.00;;;;;;6286158;22;20012;-89
2022/09/19 07:56:51;;;;;;;13.07;2.63;;;10.30;1.00;;;;;;6274976;22;20091;-89
2022/09/19 07:59:41;;;;;;;11.35;2.05;;;10.70;1.00;;;;;;6289767;22;20058;-87
2022/09/19 08:02:31;;;;;;;10.52;2.28;;;11.10;99.90;;;;;;6259829;22;20023;-86
2022/09/19 08:05:19;;;;;;;11.35;1.92;;;11.50;99.90;;;;;;6280782;22;20331;-86
2022/09/19 08:08:10;;;;;;;10.25;2.08;;;11.70;99.90;;;;;;6282889;22;20046;-85
2022/09/19 08:11:02;;;;;;;17.08;2.47;;;11.50;99.90;;;;;;6283333;22;20024;-87
2022/09/19 08:13:50;;;;;;;;;;;11.30;99.90;;;;;;6263736;22;20106;-88
2022/09/19 08:16:40;;;;;;;17.83;2.80;;;11.00;99.90;;;;;;6262422;22;19930;-88
2022/09/19 08:19:29;;;;;;;16.13;2.63;;;11.00;99.90;;;;;;6281781;22;20035;-86
2022/09/19 08:22:23;;;;;;;17.17;2.63;;;11.00;99.90;;;;;;6281816;22;20040;-89
2022/09/19 08:25:20;;;;;;;13.23;2.55;;;11.10;99.90;;;;;;6260626;22;20028;-88
2022/09/19 08:28:11;;;;;;;10.32;2.00;;;11.30;99.90;;;;;;6255394;22;20047;-85
2022/09/19 08:31:07;;;;;;;11.63;2.63;;;11.40;99.90;;;;;;6240093;22;20028;-85
2022/09/19 08:33:58;;;;;;;12.45;2.70;;;11.50;99.90;;;;;;6255304;22;20039;-86
2022/09/19 08:36:47;;;;;;;13.68;2.58;;;11.90;99.90;;;;;;6278757;22;20024;-86
2022/09/19 08:39:34;;;;;;;14.77;2.30;;;11.90;99.90;;;;;;6255246;22;20024;-86
2022/09/19 08:42:34;;;;;;;16.33;2.80;;;11.70;99.90;;;;;;6255498;22;20028;-86
2022/09/19 08:45:55;;;;;;;13.43;2.42;;;11.70;99.90;;;;;;6256311;22;20016;-87
2022/09/19 08:48:52;;;;;;;10.00;2.10;;;11.70;99.90;;;;;;6252668;22;20542;-88
2022/09/19 08:52:10;;;;;;;15.60;2.60;;;11.50;99.90;;;;;;6278544;22;20042;-87
2022/09/19 08:55:02;;;;;;;13.40;2.42;;;11.60;99.90;;;;;;6241350;22;20036;-86
2022/09/19 08:57:54;;;;;;;13.93;2.00;;;11.90;99.90;;;;;;6259319;22;20426;-85
2022/09/19 09:00:45;;;;;;;12.45;2.50;;;11.90;99.90;;;;;;6277669;22;20474;-86
2022/09/19 09:03:47;;;;;;;12.02;2.40;;;12.00;99.90;;;;;;6280252;22;20023;-87
2022/09/19 09:06:50;;;;;;;12.50;2.27;;;12.10;99.90;;;;;;6277538;22;20034;-88
2022/09/19 09:09:49;;;;;;;10.43;2.25;;;12.10;99.90;;;;;;6257469;22;20300;-87
2022/09/19 09:13:04;;;;;;;6.85;1.95;;;11.80;99.90;;;;;;6258717;22;20024;-86
2022/09/19 09:16:01;;;;;;;8.52;2.25;;;11.60;99.90;;;;;;6280345;22;20027;-86
2022/09/19 09:19:29;;;;;;;12.95;2.95;;;11.60;99.90;;;;;;6278782;22;20035;-87
2022/09/19 09:22:38;;;;;;;12.23;2.28;;;11.40;99.90;;;;;;6166360;23;20083;-87
2022/09/19 09:25:30;;;;;;;8.00;1.95;;;11.40;99.90;;;;;;6186104;23;20021;-87
2022/09/19 09:28:25;;;;;;;9.40;2.45;;;11.60;99.90;;;;;;6258193;22;20023;-87
2022/09/19 09:31:28;;;;;;;12.95;2.95;;;11.40;99.90;;;;;;6278714;22;20019;-87
2022/09/19 09:34:28;;;;;;;9.23;2.00;;;11.50;99.90;;;;;;6280092;22;20091;-87
2022/09/19 09:37:26;;;;;;;6.70;1.73;;;11.90;99.90;;;;;;6257240;22;20028;-88
2022/09/19 09:44:15;;;;;;;10.48;2.22;;;12.20;99.90;;;;;;6279449;22;20019;-87
2022/09/19 09:47:24;;;;;;;8.50;1.95;;;12.20;99.90;;;;;;6277788;22;20030;-87
2022/09/19 09:50:28;;;;;;;4.97;1.98;;;12.10;99.90;;;;;;6278073;22;20371;-87
2022/09/19 09:53:34;;;;;;;14.32;2.13;;;12.00;99.90;;;;;;6278833;22;20031;-86
2022/09/19 09:56:51;;;;;;;13.25;1.95;;;11.90;99.90;;;;;;6278629;22;20028;-87
2022/09/19 10:03:38;;;;;;;8.45;1.98;;;12.20;99.90;;;;;;6277867;22;20095;-86
2022/09/19 10:06:29;;;;;;;6.13;1.98;;;12.50;99.90;;;;;;6257036;22;20035;-87
2022/09/19 10:09:29;;;;;;;6.63;1.80;;;12.70;99.90;;;;;;6278843;22;20055;-86
2022/09/19 10:12:23;;;;;;;7.28;1.70;;;12.90;99.90;;;;;;6279543;22;20028;-86
2022/09/19 10:15:31;;;;;;;9.70;2.05;;;13.10;99.90;;;;;;6279040;22;20037;-87
2022/09/19 10:18:20;;;;;;;7.00;1.50;;;13.10;99.90;;;;;;6279089;22;20031;-87
2022/09/19 10:21:09;;;;;;;4.88;1.40;;;13.30;99.90;;;;;;6278851;22;20431;-87
2022/09/19 10:23:56;;;;;;;5.82;1.83;;;13.60;99.90;;;;;;6277653;22;20696;-89
2022/09/19 10:26:45;;;;;;;4.35;1.42;;;14.00;99.90;;;;;;6287880;22;20024;-89
2022/09/19 10:29:35;;;;;;;5.68;1.40;;;14.10;99.90;;;;;;6273444;22;20046;-88
2022/09/19 10:32:30;;;;;;;4.57;1.20;;;13.80;99.90;;;;;;6281968;22;20030;-90
2022/09/19 10:35:37;;;;;;;7.50;1.50;;;13.70;99.90;;;;;;6279289;22;20030;-90
2022/09/19 10:38:48;;;;;;;7.32;1.40;;;13.70;99.90;;;;;;6258189;22;20027;-91
2022/09/19 10:41:40;;;;;;;6.50;1.33;;;13.50;99.90;;;;;;6279188;22;20023;-92
2022/09/19 10:44:27;;;;;;;7.53;1.98;;;13.50;99.90;;;;;;6281372;22;20414;-91
2022/09/19 10:47:15;;;;;;;5.85;1.25;;;13.20;99.90;;;;;;6257754;22;20051;-92
2022/09/19 10:50:02;;;;;;;3.97;1.00;;;13.00;99.90;;;;;;6280001;22;20023;-91
2022/09/19 10:53:02;;;;;;;6.40;1.48;;;12.90;99.90;;;;;;6258380;22;20071;-90
2022/09/19 10:56:04;;;;;;;7.07;1.80;;;12.50;99.90;;;;;;6257863;22;20027;-91
2022/09/19 10:59:35;;;;;;;7.75;2.15;;;12.30;99.90;;;;;;6258405;22;20038;-93
2022/09/19 11:10:57;;;;;;;5.28;1.55;;;13.20;99.90;;;;;;6279148;22;20094;-91
2022/09/19 11:14:44;;;;;;;7.53;1.40;;;13.90;99.90;;;;;;6199680;23;20050;-91
2022/09/19 11:22:02;;;;;;;5.43;1.30;;;15.90;99.90;;;;;;6075865;23;20125;-87
2022/09/19 11:25:04;;;;;;;6.50;1.80;;;16.30;99.90;;;;;;6096574;23;20094;-86
2022/09/19 11:28:15;;;;;;;4.28;1.20;;;15.80;99.90;;;;;;6076346;23;20031;-86
2022/09/19 11:32:09;;;;;;;3.47;1.00;;;15.30;99.90;;;;;;6096604;23;20026;-87
2022/09/19 11:35:32;;;;;;;4.68;1.15;;;14.60;99.90;;;;;;6072104;23;20025;-87
2022/09/19 11:39:03;;;;;;;6.75;1.40;;;14.50;99.90;;;;;;6216180;23;20020;-89
2022/09/19 11:42:15;;;;;;;7.20;1.25;;;14.90;99.90;;;;;;6200138;23;20071;-87
2022/09/19 11:45:16;;;;;;;7.47;1.52;;;14.90;99.90;;;;;;6240973;22;20027;-88
2022/09/19 11:48:27;;;;;;;5.03;1.35;;;14.60;99.00;;;;;;6257131;22;20423;-88
2022/09/19 11:51:51;;;;;;;5.15;1.23;;;14.40;96.60;;;;;;6259065;22;20027;-89
2022/09/19 11:54:44;;;;;;;3.08;1.00;;;14.20;99.90;;;;;;6220889;22;20046;-85
2022/09/19 11:57:44;;;;;;;1.45;0.88;;;14.10;99.90;;;;;;6277478;22;20528;-88
2022/09/19 12:00:54;;;;;;;7.40;1.00;;;13.70;99.90;;;;;;6276861;22;20023;-85
2022/09/19 12:04:09;;;;;;;3.72;1.17;;;13.20;99.90;;;;;;6275286;22;20028;-87
2022/09/19 12:07:10;;;;;;;3.50;1.00;;;12.90;99.90;;;;;;6254938;22;20023;-86
2022/09/19 12:10:29;;;;;;;6.90;1.33;;;12.40;99.90;;;;;;6274709;22;20027;-86
2022/09/19 12:13:25;;;;;;;3.35;1.20;;;12.10;99.90;;;;;;6254204;22;20023;-89
2022/09/19 12:16:21;;;;;;;3.15;1.08;;;12.10;99.90;;;;;;6259933;22;20035;-90
2022/09/19 12:19:18;;;;;;;4.85;1.27;;;12.30;99.90;;;;;;6261764;22;20024;-87
2022/09/19 12:22:28;;;;;;;3.03;1.27;;;12.70;99.90;;;;;;6259159;22;20016;-86
2022/09/19 12:25:23;;;;;;;3.38;1.10;;;13.10;99.90;;;;;;6258054;22;20110;-86
2022/09/19 12:28:33;;;;;;;5.22;1.02;;;14.70;99.90;;;;;;6255935;22;20391;-84
2022/09/19 12:31:27;;;;;;;4.03;1.15;;;15.90;99.90;;;;;;6255014;22;20340;-86
2022/09/19 12:34:35;;;;;;;4.78;1.13;;;17.20;95.50;;;;;;6253967;22;20054;-87
2022/09/19 12:37:36;;;;;;;3.15;1.17;;;16.60;66.00;;;;;;6256202;22;20103;-86
2022/09/19 12:40:51;;;;;;;3.85;1.50;;;15.50;86.70;;;;;;6255510;22;20023;-89
2022/09/19 12:44:04;;;;;;;2.67;1.08;;;16.10;94.80;;;;;;6254990;22;20069;-83
2022/09/19 12:47:01;;;;;;;2.25;1.00;;;16.80;65.50;;;;;;6255956;22;20034;-83
2022/09/19 12:50:04;;;;;;;4.80;1.08;;;16.50;62.20;;;;;;6276936;22;20419;-85
2022/09/19 12:53:00;;;;;;;7.22;0.85;;;16.10;58.30;;;;;;6194808;23;1151168;-88
2022/09/19 12:56:04;;;;;;;3.55;0.82;;;15.70;65.30;;;;;;6248818;23;20028;-88
2022/09/19 12:59:05;;;;;;;5.60;1.17;;;15.10;70.80;;;;;;6227128;23;20024;-85
2022/09/19 13:02:12;;;;;;;3.75;1.13;;;14.30;91.60;;;;;;6229220;23;20051;-88
2022/09/19 13:05:32;;;;;;;4.85;1.45;;;14.20;99.90;;;;;;6232466;23;20403;-92
2022/09/19 13:09:03;;;;;;;4.95;1.15;;;14.30;99.90;;;;;;6251932;23;20020;-90
2022/09/19 13:12:13;;;;;;;6.57;1.23;;;13.90;99.90;;;;;;6250295;23;20351;-89
2022/09/19 13:15:08;;;;;;;4.43;0.93;;;14.00;99.90;;;;;;6230689;23;20108;-88
2022/09/19 13:24:38;;;;;;;7.93;1.60;;;13.60;99.90;;;;;;6260915;23;20040;-88
2022/09/19 13:27:26;;;;;;;3.75;0.95;;;14.00;99.90;;;;;;6242794;23;20024;-87
2022/09/19 13:30:56;;;;;;;4.35;1.30;;;15.20;99.90;;;;;;6238502;23;20047;-88
2022/09/19 13:34:33;;;;;;;5.13;1.63;;;15.40;99.90;;;;;;6234100;23;20028;-85
2022/09/19 13:37:50;;;;;;;3.67;0.95;;;15.00;99.90;;;;;;6228757;23;20032;-85
2022/09/19 13:40:56;;;;;;;5.80;1.15;;;16.00;98.00;;;;;;6253804;22;20054;-87
2022/09/19 13:44:00;;;;;;;3.70;0.90;;;17.30;73.20;;;;;;6231779;23;20020;-87
2022/09/19 13:47:22;;;;;;;6.78;0.88;;;19.70;33.20;;;;;;6252871;23;20034;-87
2022/09/19 13:50:18;;;;;;;1.33;0.70;;;19.70;11.50;;;;;;6244679;23;20038;-87
2022/09/19 13:53:42;;;;;;;3.00;0.90;;;18.50;5.90;;;;;;6237582;22;20020;-86
2022/09/19 13:56:37;;;;;;;3.33;1.02;;;17.20;11.70;;;;;;6279591;22;20024;-87
2022/09/19 13:59:35;;;;;;;3.50;1.27;;;16.10;16.60;;;;;;6279223;22;20109;-85
2022/09/19 14:02:25;;;;;;;4.55;0.80;;;17.00;19.60;;;;;;6278400;22;20058;-85
2022/09/19 14:05:14;;;;;;;2.33;1.00;;;17.70;7.10;;;;;;6258622;22;20020;-87
2022/09/19 14:08:02;;;;;;;3.13;0.93;;;17.10;11.30;;;;;;6279234;22;20042;-85
2022/09/19 14:11:17;;;;;;;5.20;1.10;;;17.00;7.90;;;;;;6279213;22;20024;-89
2022/09/19 14:14:41;;;;;;;3.00;0.95;;;18.00;3.60;;;;;;6240592;22;20062;-86
2022/09/19 14:17:31;;;;;;;;;;;19.00;10.40;;;;;;6283971;22;20027;-85
2022/09/19 14:20:59;;;;;;;4.78;0.90;;;19.30;1.00;;;;;;6255020;22;19919;-89
2022/09/19 14:23:58;;;;;;;3.58;1.08;;;19.20;1.00;;;;;;6256719;22;20019;-87
2022/09/19 14:27:05;;;;;;;4.28;1.05;;;19.60;1.00;;;;;;6278094;22;20020;-86
2022/09/19 14:30:04;;;;;;;2.75;0.90;;;17.20;1.00;;;;;;6256351;22;20074;-86
2022/09/19 14:33:18;;;;;;;5.63;1.48;;;15.30;1.00;;;;;;6278653;22;20039;-86
2022/09/19 14:36:32;;;;;;;5.75;1.20;;;14.30;9.60;;;;;;6279818;22;20093;-87
2022/09/19 14:39:35;;;;;;;3.70;1.45;;;14.70;24.90;;;;;;6264832;22;20080;-88
2022/09/19 14:42:48;;;;;;;5.93;1.30;;;16.10;12.50;;;;;;6292883;22;20028;-90
2022/09/19 14:46:06;;;;;;;5.05;1.23;;;15.50;10.40;;;;;;6284640;22;20511;-91
2022/09/19 14:49:49;;;;;;;2.72;0.90;;;14.60;16.20;;;;;;6193511;22;20025;-86
2022/09/19 14:52:40;;;;;;;3.72;1.20;;;14.00;25.20;;;;;;6243358;22;20030;-88
2022/09/19 14:55:35;;;;;;;4.28;1.88;;;13.80;43.00;;;;;;6257730;22;20023;-88
2022/09/19 14:58:24;;;;;;;4.13;1.35;;;14.20;50.70;;;;;;6278674;22;20321;-88
2022/09/19 15:01:15;;;;;;;4.90;1.10;;;15.30;41.10;;;;;;6278548;22;20023;-87
2022/09/19 15:04:13;;;;;;;5.55;1.33;;;16.90;17.90;;;;;;6259490;22;20020;-89
2022/09/19 15:07:12;;;;;;;3.10;1.33;;;17.60;17.00;;;;;;6265040;22;20090;-88
2022/09/19 15:10:37;;;;;;;4.15;1.70;;;16.40;1.00;;;;;;6193019;23;20372;-90
2022/09/19 15:13:33;;;;;;;4.93;1.30;;;14.50;14.50;;;;;;6193695;23;20025;-89
2022/09/19 15:16:22;;;;;;;4.20;1.45;;;13.80;23.00;;;;;;6192187;23;20116;-89
2022/09/19 15:19:10;;;;;;;4.22;1.50;;;13.50;38.20;;;;;;6192835;23;20091;-91
2022/09/19 15:21:57;;;;;;;5.13;1.40;;;13.30;52.90;;;;;;6188901;23;20353;-88
2022/09/19 15:24:50;;;;;;;4.63;1.55;;;13.90;58.90;;;;;;6189976;23;20032;-86
2022/09/19 15:27:47;;;;;;;9.35;1.35;;;14.70;43.70;;;;;;6264081;22;20026;-87
2022/09/19 15:30:34;;;;;;;9.93;1.58;;;14.60;29.60;;;;;;6270723;22;20027;-86
2022/09/19 15:33:22;;;;;;;7.20;1.00;;;14.10;26.90;;;;;;6269749;22;20097;-88
2022/09/19 15:36:22;;;;;;;4.15;1.33;;;13.60;31.80;;;;;;6293482;22;20034;-88
2022/09/19 15:39:13;;;;;;;3.53;1.00;;;13.30;37.80;;;;;;6292546;22;20049;-88
2022/09/19 15:42:00;;;;;;;4.88;1.27;;;13.00;41.90;;;;;;6276857;22;20028;-84
2022/09/19 15:44:48;;;;;;;8.05;2.28;;;12.90;69.60;;;;;;6301834;22;20018;-89
2022/09/19 15:47:35;;;;;;;4.38;1.73;;;12.50;99.90;;;;;;6272294;22;20079;-86
2022/09/19 15:50:23;;;;;;;6.03;1.60;;;12.10;99.90;;;;;;6260576;22;20051;-88
2022/09/19 15:53:39;;;;;;;11.30;2.78;;;11.80;99.90;;;;;;6262787;22;20099;-86
2022/09/19 15:56:27;;;;;;;6.38;1.73;;;12.00;99.90;;;;;;6258831;22;20116;-90
2022/09/19 15:59:23;;;;;;;5.80;1.60;;;13.20;99.90;;;;;;6281633;22;20028;-88
2022/09/19 16:02:17;;;;;;;5.43;1.52;;;14.60;99.90;;;;;;6278802;22;20099;-87